Time;durP1;ratioP1;P1;durP2;ratioP2;P2;SDS_P1;SDS_P2;PMS_P1;PMS_P2;Temp;Humidity;BMP_temperature;BMP_pressure;BME280_temperature;BME280_humidity;BME280_pressure;Samples;Min_cycle;Max_cycle;Signal;HPM_P1;HPM_P2
2022/07/13 00:01:35;;;;;;;21.63;13.25;;;;;;;20.71;92.99;102121.06;5030391;28;20046;-70
2022/07/13 00:04:01;;;;;;;17.77;13.00;;;;;;;20.74;93.14;102119.97;5029201;28;20049;-69
2022/07/13 00:06:26;;;;;;;21.52;13.88;;;;;;;20.75;93.20;102127.09;5030267;28;20038;-69
2022/07/13 00:08:51;;;;;;;19.60;14.32;;;;;;;20.69;95.79;102115.78;5030291;28;20036;-70
2022/07/13 00:11:25;;;;;;;17.25;13.35;;;;;;;20.61;95.88;102130.97;5030229;28;20030;-70
2022/07/13 00:13:50;;;;;;;19.73;14.75;;;;;;;20.59;95.35;102125.69;5030118;28;20098;-69
2022/07/13 00:16:16;;;;;;;20.75;14.30;;;;;;;20.50;94.74;102103.94;5029112;28;20214;-70
2022/07/13 00:18:41;;;;;;;20.75;14.27;;;;;;;20.35;96.09;102081.69;5029983;28;20026;-70
2022/07/13 00:21:07;;;;;;;24.25;15.82;;;;;;;20.43;95.85;102088.19;5028741;28;20034;-69
2022/07/13 00:23:32;;;;;;;19.17;14.55;;;;;;;20.52;96.75;102088.41;5029448;28;20257;-70
2022/07/13 00:25:58;;;;;;;19.00;14.32;;;;;;;20.54;97.79;102075.59;5029662;28;20025;-70
2022/07/13 00:28:24;;;;;;;21.42;15.18;;;;;;;20.37;97.08;102063.44;5029533;28;20317;-70
2022/07/13 00:30:49;;;;;;;20.83;14.90;;;;;;;20.42;96.15;102059.34;5028108;28;20046;-70
2022/07/13 00:33:17;;;;;;;20.50;14.80;;;;;;;20.39;96.27;102066.88;5028419;28;20087;-70
2022/07/13 00:35:44;;;;;;;27.55;14.55;;;;;;;20.31;97.18;102062.09;5028369;28;20122;-70
2022/07/13 00:38:10;;;;;;;22.08;15.50;;;;;;;20.30;97.12;102062.25;5011871;28;20041;-69
2022/07/13 00:40:35;;;;;;;22.58;14.45;;;;;;;20.36;97.43;102057.16;5028296;28;20037;-69
2022/07/13 00:43:01;;;;;;;19.75;14.65;;;;;;;20.41;99.00;102054.06;5029123;28;20163;-69
2022/07/13 00:45:26;;;;;;;27.20;15.15;;;;;;;20.37;96.82;102055.31;5028143;28;20053;-70
2022/07/13 00:47:53;;;;;;;19.73;14.73;;;;;;;20.42;96.47;102045.78;5028941;28;20057;-69
2022/07/13 00:50:19;;;;;;;18.25;13.65;;;;;;;20.43;96.95;102039.41;5011647;28;20049;-70
2022/07/13 00:52:46;;;;;;;20.83;13.65;;;;;;;20.34;96.77;102032.06;5010032;28;20048;-69
2022/07/13 00:55:13;;;;;;;18.20;14.60;;;;;;;20.16;96.64;102039.88;5005516;28;20026;-70
2022/07/13 00:57:38;;;;;;;22.10;15.02;;;;;;;20.16;97.48;102033.63;5027586;28;20022;-70
2022/07/13 01:00:08;;;;;;;16.80;12.77;;;;;;;20.24;97.99;102023.00;5026973;28;20036;-70
2022/07/13 01:02:36;;;;;;;23.80;14.35;;;;;;;20.26;98.71;102017.44;5027802;28;20038;-71
2022/07/13 01:05:02;;;;;;;17.35;13.30;;;;;;;20.35;98.41;102022.06;5028767;28;20033;-69
2022/07/13 01:07:30;;;;;;;16.77;12.75;;;;;;;20.29;96.44;102017.19;5028887;28;20094;-69
2022/07/13 01:09:56;;;;;;;18.92;12.25;;;;;;;20.14;96.13;102009.38;5028912;28;20033;-70
2022/07/13 01:12:21;;;;;;;17.70;13.23;;;;;;;20.01;97.72;102011.41;5028988;28;20029;-70
2022/07/13 01:14:48;;;;;;;18.02;12.13;;;;;;;19.95;97.85;102014.63;5028888;28;20042;-70
2022/07/13 01:17:13;;;;;;;21.83;14.43;;;;;;;19.85;97.94;102019.97;5011838;28;20042;-69
2022/07/13 01:19:39;;;;;;;17.42;12.60;;;;;;;19.88;98.03;102017.00;5028371;28;20026;-69
2022/07/13 01:22:08;;;;;;;17.35;11.98;;;;;;;20.08;97.33;102009.03;5028697;28;20026;-70
2022/07/13 01:24:37;;;;;;;16.55;13.25;;;;;;;19.97;97.95;102000.97;5028878;28;20034;-70
2022/07/13 01:27:03;;;;;;;17.58;12.07;;;;;;;19.96;98.02;101997.41;5027963;28;20109;-70
2022/07/13 01:29:29;;;;;;;16.70;11.93;;;;;;;20.02;97.87;101996.00;5027763;28;20037;-69
2022/07/13 01:32:01;;;;;;;22.10;12.65;;;;;;;20.05;97.71;102007.44;5027699;28;20025;-69
2022/07/13 01:34:27;;;;;;;19.75;12.63;;;;;;;20.08;99.32;102006.31;5027937;28;20057;-70
2022/07/13 01:36:54;;;;;;;17.05;12.73;;;;;;;20.04;99.59;102000.31;5028884;28;20037;-72
2022/07/13 01:39:19;;;;;;;18.98;12.77;;;;;;;20.05;98.85;101995.75;5028047;28;20076;-70
2022/07/13 01:41:45;;;;;;;18.52;11.20;;;;;;;19.95;99.03;101989.41;5028701;28;20026;-68
2022/07/13 01:44:14;;;;;;;18.02;12.18;;;;;;;19.97;99.65;101990.13;5011322;28;20241;-69
2022/07/13 01:46:39;;;;;;;16.77;12.73;;;;;;;20.01;99.66;101991.59;5010719;28;20029;-70
2022/07/13 01:49:05;;;;;;;19.80;12.63;;;;;;;19.95;99.02;101992.13;5027101;28;20026;-70
2022/07/13 01:51:30;;;;;;;14.32;11.32;;;;;;;20.08;98.51;101985.53;5017937;28;20032;-69
2022/07/13 01:53:56;;;;;;;15.10;11.65;;;;;;;19.87;98.70;101980.06;5010818;28;20037;-69
2022/07/13 01:56:22;;;;;;;15.30;12.48;;;;;;;19.71;98.76;101974.25;5028217;28;20044;-69
2022/07/13 01:58:50;;;;;;;15.98;11.77;;;;;;;19.82;98.95;101971.47;5027415;28;20107;-70
2022/07/13 02:01:16;;;;;;;18.23;12.50;;;;;;;19.80;99.60;101968.06;5027160;28;20058;-70
2022/07/13 02:03:44;;;;;;;17.10;12.65;;;;;;;19.83;99.14;101967.81;5011362;28;20097;-69
2022/07/13 02:06:10;;;;;;;16.52;12.20;;;;;;;19.79;100.00;101969.06;5027468;28;20030;-69
2022/07/13 02:08:35;;;;;;;23.23;13.63;;;;;;;19.62;100.00;101975.88;5028212;28;20040;-70
2022/07/13 02:11:03;;;;;;;22.25;12.55;;;;;;;19.55;100.00;101969.22;5031391;28;20030;-70
2022/07/13 02:13:29;;;;;;;15.75;12.55;;;;;;;19.57;100.00;101972.66;5017445;28;20026;-70
2022/07/13 02:15:54;;;;;;;18.33;11.27;;;;;;;19.65;99.96;101967.50;5034886;28;20097;-70
2022/07/13 02:18:20;;;;;;;19.00;12.25;;;;;;;19.73;99.25;101969.56;5017604;28;20045;-69
2022/07/13 02:20:46;;;;;;;15.05;11.02;;;;;;;19.87;100.00;101965.69;5034069;28;20077;-69
2022/07/13 02:23:15;;;;;;;13.02;10.35;;;;;;;19.94;99.40;101957.91;5034758;28;20030;-70
2022/07/13 02:25:41;;;;;;;15.45;11.75;;;;;;;19.86;99.34;101962.13;5017421;28;20033;-68
2022/07/13 02:28:07;;;;;;;16.13;11.13;;;;;;;19.93;98.55;101943.53;5034795;28;20080;-70
2022/07/13 02:30:33;;;;;;;16.33;10.73;;;;;;;19.90;97.94;101952.75;5017264;28;20045;-70
2022/07/13 02:32:59;;;;;;;14.50;10.63;;;;;;;19.82;99.33;101951.69;5033745;28;20025;-70
2022/07/13 02:35:25;;;;;;;16.55;11.48;;;;;;;19.74;99.58;101955.06;5034626;28;20075;-69
2022/07/13 02:37:55;;;;;;;14.07;11.27;;;;;;;19.71;98.79;101949.88;5033161;28;20030;-70
2022/07/13 02:40:21;;;;;;;15.45;10.50;;;;;;;19.70;96.72;101952.72;5033302;28;20046;-70
2022/07/13 02:42:47;;;;;;;15.40;9.45;;;;;;;19.72;99.44;101946.19;5033279;28;20030;-69
2022/07/13 02:45:13;;;;;;;16.00;10.32;;;;;;;19.66;98.65;101946.72;5033129;28;20064;-69
2022/07/13 02:47:39;;;;;;;11.32;9.38;;;;;;;19.70;97.62;101939.19;5034254;28;20045;-69
2022/07/13 02:50:05;;;;;;;13.90;10.07;;;;;;;19.76;96.55;101934.13;5016734;28;20034;-69
2022/07/13 02:52:30;;;;;;;13.98;10.77;;;;;;;19.75;97.55;101934.25;5016145;28;20030;-69
2022/07/13 02:54:58;;;;;;;13.90;10.18;;;;;;;19.84;97.82;101922.66;5026179;28;20044;-70
2022/07/13 02:57:27;;;;;;;14.20;10.30;;;;;;;19.69;97.58;101924.81;5017214;28;20037;-70
2022/07/13 02:59:58;;;;;;;14.57;10.05;;;;;;;19.76;97.84;101911.59;5033069;28;20033;-70
2022/07/13 03:02:23;;;;;;;13.18;9.57;;;;;;;19.80;97.98;101910.34;5033361;28;20030;-69
2022/07/13 03:04:49;;;;;;;12.30;9.23;;;;;;;19.71;98.33;101911.13;5016864;28;20068;-69
2022/07/13 03:07:18;;;;;;;13.73;10.07;;;;;;;19.79;97.97;101917.63;5033267;28;20034;-70
2022/07/13 03:09:46;;;;;;;11.50;9.55;;;;;;;19.81;97.91;101915.63;5033278;28;20119;-69
2022/07/13 03:12:12;;;;;;;12.52;9.50;;;;;;;19.84;98.82;101906.41;5034330;28;20064;-68
2022/07/13 03:14:46;;;;;;;16.05;11.27;;;;;;;19.63;99.87;101903.69;5017947;28;20042;-69
2022/07/13 03:17:12;;;;;;;10.20;8.55;;;;;;;19.76;99.27;101914.31;5016973;28;20084;-69
2022/07/13 03:19:38;;;;;;;11.05;8.13;;;;;;;19.82;100.00;101914.63;5032927;28;20037;-69
2022/07/13 03:22:04;;;;;;;10.70;8.02;;;;;;;19.81;98.60;101912.94;5030627;28;20021;-70
2022/07/13 03:24:31;;;;;;;12.23;8.27;;;;;;;19.82;95.60;101908.38;5013694;28;20025;-69
2022/07/13 03:26:57;;;;;;;10.88;8.82;;;;;;;19.80;96.62;101904.94;5029900;28;20029;-70
2022/07/13 03:29:24;;;;;;;10.00;7.90;;;;;;;19.79;98.30;101909.50;5029892;28;20026;-69
2022/07/13 03:31:49;;;;;;;13.50;8.35;;;;;;;19.75;98.24;101908.03;5030604;28;20054;-70
2022/07/13 03:34:18;;;;;;;10.48;7.78;;;;;;;19.69;96.60;101908.56;5013171;28;20342;-70
2022/07/13 03:36:45;;;;;;;10.75;7.13;;;;;;;19.65;97.87;101896.28;5029483;28;20037;-70
2022/07/13 03:39:12;;;;;;;11.57;7.80;;;;;;;19.55;98.04;101903.44;5012663;28;20046;-69
2022/07/13 03:41:38;;;;;;;9.60;6.93;;;;;;;19.63;95.12;101898.28;5029551;28;20036;-69
2022/07/13 03:44:05;;;;;;;9.75;7.25;;;;;;;19.85;95.89;101894.59;5029120;28;20121;-70
2022/07/13 03:46:31;;;;;;;10.05;7.30;;;;;;;19.90;95.90;101878.78;5029200;28;20037;-69
2022/07/13 03:48:57;;;;;;;6.93;5.63;;;;;;;19.89;90.29;101883.34;5028602;28;20037;-70
2022/07/13 03:51:24;;;;;;;15.07;6.45;;;;;;;19.97;89.00;101882.69;5012861;28;20037;-70
2022/07/13 03:53:49;;;;;;;7.72;5.85;;;;;;;19.99;92.65;101888.84;5029828;28;20022;-69
2022/07/13 03:56:16;;;;;;;9.27;6.15;;;;;;;20.05;93.00;101882.88;5028740;28;20049;-70
2022/07/13 03:58:42;;;;;;;6.63;5.35;;;;;;;20.03;90.34;101882.16;5029021;28;20050;-70
2022/07/13 04:01:08;;;;;;;7.18;5.22;;;;;;;20.20;92.12;101874.41;5012859;28;20030;-70
2022/07/13 04:03:34;;;;;;;9.75;5.45;;;;;;;20.25;88.75;101880.28;5013731;28;20030;-69
2022/07/13 04:06:00;;;;;;;6.40;5.15;;;;;;;20.40;86.21;101882.50;5031463;28;20056;-69
2022/07/13 04:08:27;;;;;;;6.65;4.90;;;;;;;20.39;91.92;101879.94;5030458;28;20029;-69
2022/07/13 04:10:57;;;;;;;9.68;5.25;;;;;;;20.34;90.32;101874.91;5030217;28;20069;-69
2022/07/13 04:13:24;;;;;;;6.95;4.72;;;;;;;20.35;90.22;101870.34;5030674;28;20042;-70
2022/07/13 04:15:49;;;;;;;8.05;4.90;;;;;;;20.51;89.81;101870.75;5030320;28;20090;-70
2022/07/13 04:18:17;;;;;;;6.03;5.28;;;;;;;20.58;92.05;101865.63;5029416;28;20028;-69
2022/07/13 04:20:46;;;;;;;13.32;5.28;;;;;;;20.59;90.92;101868.22;5029644;28;20037;-70
2022/07/13 04:23:11;;;;;;;10.43;5.65;;;;;;;20.56;87.98;101862.19;5012485;28;20102;-69
2022/07/13 04:25:37;;;;;;;9.48;5.00;;;;;;;20.49;83.76;101866.47;5012635;28;20030;-69
2022/07/13 04:28:03;;;;;;;7.20;5.20;;;;;;;20.63;87.69;101864.25;5012117;28;20041;-69
2022/07/13 04:30:29;;;;;;;7.00;5.10;;;;;;;20.67;87.66;101859.38;5012521;28;20028;-69
2022/07/13 04:32:57;;;;;;;9.50;5.10;;;;;;;20.82;83.06;101849.00;5028074;28;20045;-69
2022/07/13 04:35:28;;;;;;;8.38;5.57;;;;;;;20.80;82.54;101851.00;5028331;28;20049;-70
2022/07/13 04:37:54;;;;;;;8.38;5.20;;;;;;;20.77;83.25;101856.69;5022722;28;20034;-70
2022/07/13 04:40:20;;;;;;;11.45;5.65;;;;;;;20.88;82.97;101857.47;5013817;28;20053;-69
2022/07/13 04:42:46;;;;;;;7.10;4.95;;;;;;;20.90;85.44;101854.59;5013513;28;20025;-69
2022/07/13 04:45:13;;;;;;;6.47;4.80;;;;;;;20.91;84.00;101849.03;5029812;28;20050;-69
2022/07/13 04:47:40;;;;;;;11.18;5.63;;;;;;;21.01;81.86;101838.19;5029984;28;20060;-69
2022/07/13 04:50:07;;;;;;;18.02;6.00;;;;;;;21.00;81.87;101843.78;5014190;28;20037;-69
2022/07/13 04:52:33;;;;;;;8.80;5.32;;;;;;;21.11;83.14;101839.06;5012703;28;20062;-69
2022/07/13 04:55:02;;;;;;;12.15;4.95;;;;;;;21.10;80.92;101837.34;5022428;28;20037;-70
2022/07/13 04:57:29;;;;;;;10.32;5.50;;;;;;;21.04;80.76;101840.63;5018965;28;20034;-70
2022/07/13 04:59:56;;;;;;;8.93;5.97;;;;;;;21.15;80.88;101826.09;5008708;28;20066;-70
2022/07/13 05:02:21;;;;;;;10.65;6.05;;;;;;;21.38;80.39;101832.09;5008732;28;20054;-71
2022/07/13 05:04:47;;;;;;;12.35;6.47;;;;;;;21.31;80.24;101828.25;5009203;28;20056;-70
2022/07/13 05:07:12;;;;;;;12.63;5.78;;;;;;;21.41;80.31;101832.66;4988866;28;20526;-70
2022/07/13 05:09:39;;;;;;;11.80;5.93;;;;;;;21.50;80.05;101830.97;4985267;28;20034;-70
2022/07/13 05:12:06;;;;;;;10.05;6.05;;;;;;;21.64;78.17;101829.66;4969721;28;20499;-69
2022/07/13 05:14:32;;;;;;;11.77;6.00;;;;;;;21.89;78.77;101830.91;4987116;28;20136;-68
2022/07/13 05:16:57;;;;;;;12.07;5.90;;;;;;;22.00;78.98;101822.56;4987957;28;20038;-68
2022/07/13 05:19:23;;;;;;;9.48;6.15;;;;;;;22.22;78.80;101824.09;4991477;28;20057;-67
2022/07/13 05:21:49;;;;;;;10.13;6.35;;;;;;;22.17;77.91;101829.97;4974735;28;20038;-68
2022/07/13 05:24:16;;;;;;;12.93;6.13;;;;;;;22.21;77.46;101822.38;4972388;28;20054;-67
2022/07/13 05:26:42;;;;;;;10.70;6.38;;;;;;;22.06;77.67;101827.41;4989886;28;20046;-67
2022/07/13 05:29:07;;;;;;;10.13;6.45;;;;;;;22.27;78.14;101818.22;4987577;28;20042;-68
2022/07/13 05:31:35;;;;;;;11.10;6.10;;;;;;;22.31;77.22;101823.19;4971335;28;20062;-68
2022/07/13 05:34:01;;;;;;;11.27;6.60;;;;;;;22.38;77.42;101824.31;4987919;28;20054;-69
2022/07/13 05:36:31;;;;;;;11.13;6.70;;;;;;;22.33;76.25;101821.19;4985736;28;20073;-68
2022/07/13 05:38:57;;;;;;;14.48;6.88;;;;;;;22.44;75.76;101829.16;4987913;28;20596;-68
2022/07/13 05:41:27;;;;;;;13.35;6.70;;;;;;;22.47;76.61;101833.41;4987002;28;20089;-69
2022/07/13 05:43:56;;;;;;;12.82;6.68;;;;;;;22.77;75.18;101836.84;4972379;28;20058;-68
2022/07/13 05:46:23;;;;;;;9.70;5.95;;;;;;;22.74;76.83;101835.25;4973693;28;20123;-68
2022/07/13 05:48:50;;;;;;;9.90;6.03;;;;;;;22.78;75.65;101831.25;4992395;28;20041;-69
2022/07/13 05:51:18;;;;;;;9.82;6.00;;;;;;;22.69;75.18;101838.47;4999757;28;20033;-67
2022/07/13 05:53:46;;;;;;;10.90;6.03;;;;;;;22.82;75.53;101840.81;5012771;28;20156;-68
2022/07/13 05:56:11;;;;;;;14.25;6.75;;;;;;;22.93;75.34;101842.50;4996712;28;20069;-68
2022/07/13 05:58:37;;;;;;;11.73;7.43;;;;;;;23.05;73.63;101843.16;5014992;28;20045;-68
2022/07/13 06:01:03;;;;;;;11.52;6.72;;;;;;;23.23;73.49;101836.69;5017108;28;20042;-67
2022/07/13 06:03:29;;;;;;;12.45;7.10;;;;;;;23.25;73.64;101837.41;5017640;28;20049;-68
2022/07/13 06:05:54;;;;;;;15.88;6.68;;;;;;;23.13;72.80;101838.63;5018896;28;20049;-69
2022/07/13 06:08:20;;;;;;;11.73;5.90;;;;;;;23.09;73.18;101837.22;5018546;28;20042;-69
2022/07/13 06:10:48;;;;;;;10.25;6.45;;;;;;;23.34;74.38;101838.31;5019443;28;20599;-68
2022/07/13 06:13:17;;;;;;;11.27;6.63;;;;;;;23.57;74.32;101832.38;5002063;28;20148;-68
2022/07/13 06:15:44;;;;;;;11.57;6.10;;;;;;;23.71;71.15;101820.97;5021311;28;20038;-67
2022/07/13 06:18:09;;;;;;;13.93;6.90;;;;;;;23.75;70.38;101828.66;5020387;28;20038;-68
2022/07/13 06:20:35;;;;;;;14.38;7.10;;;;;;;23.91;71.39;101837.94;5022440;28;20501;-68
2022/07/13 06:23:10;;;;;;;12.57;6.88;;;;;;;23.75;71.90;101828.66;5021365;28;20045;-67
2022/07/13 06:25:38;;;;;;;15.88;7.18;;;;;;;23.70;70.98;101833.72;5003710;28;20042;-67
2022/07/13 06:28:06;;;;;;;8.57;6.70;;;;;;;23.84;70.66;101835.00;5023275;28;20038;-68
2022/07/13 06:30:35;;;;;;;11.70;6.18;;;;;;;23.87;71.38;101829.22;5022867;28;20933;-68
2022/07/13 06:33:02;;;;;;;11.25;7.13;;;;;;;23.90;70.88;101833.53;5024122;28;20038;-67
2022/07/13 06:35:31;;;;;;;15.15;7.78;;;;;;;23.73;68.54;101829.81;5005729;28;20060;-68
2022/07/13 06:37:56;;;;;;;9.93;7.00;;;;;;;24.16;69.15;101833.50;5022417;28;20105;-68
2022/07/13 06:40:25;;;;;;;11.43;7.10;;;;;;;24.15;69.35;101826.34;5021860;28;20038;-69
2022/07/13 06:42:54;;;;;;;12.27;7.35;;;;;;;24.36;69.02;101824.09;5023162;28;20038;-69
2022/07/13 06:45:23;;;;;;;20.25;8.27;;;;;;;24.45;67.74;101828.56;5023665;28;20042;-67
2022/07/13 06:48:01;;;;;;;12.20;7.40;;;;;;;24.71;67.61;101827.66;5021877;28;20093;-67
2022/07/13 06:50:27;;;;;;;16.77;7.55;;;;;;;24.68;65.45;101815.19;5022164;28;20034;-67
2022/07/13 06:53:03;;;;;;;14.52;7.40;;;;;;;25.23;67.25;101805.59;5022320;28;20080;-68
2022/07/13 06:55:28;;;;;;;10.70;6.93;;;;;;;25.76;63.02;101798.78;5022524;28;20053;-66
2022/07/13 06:57:55;;;;;;;12.57;7.50;;;;;;;26.36;62.54;101809.19;5023650;28;20044;-69
2022/07/13 07:00:26;;;;;;;13.88;6.85;;;;;;;26.20;62.32;101803.75;5026379;28;20049;-68
2022/07/13 07:02:57;;;;;;;13.93;7.45;;;;;;;25.75;62.61;101816.16;5024532;28;20045;-66
2022/07/13 07:05:23;;;;;;;;;;;;;;;25.63;61.43;101817.53;5025557;28;20038;-67
2022/07/13 07:07:50;;;;;;;12.63;6.72;;;;;;;26.04;61.05;101827.41;5019980;28;20542;-67
2022/07/13 07:10:24;;;;;;;12.05;7.05;;;;;;;26.17;59.87;101828.75;5014565;28;20065;-68
2022/07/13 07:12:50;;;;;;;13.40;7.10;;;;;;;26.68;58.83;101824.63;5012039;28;20034;-68
2022/07/13 07:15:18;;;;;;;9.65;7.63;;;;;;;26.74;57.57;101823.91;5012761;28;20592;-69
2022/07/13 07:17:46;;;;;;;17.17;7.90;;;;;;;26.90;56.94;101827.56;5010725;28;20038;-68
2022/07/13 07:20:12;;;;;;;11.10;7.32;;;;;;;26.34;57.15;101827.66;5010428;28;20074;-68
2022/07/13 07:22:41;;;;;;;12.65;7.90;;;;;;;26.10;58.66;101834.03;5009361;28;20067;-68
2022/07/13 07:25:08;;;;;;;12.13;6.95;;;;;;;26.11;58.39;101832.19;5007913;28;20065;-69
2022/07/13 07:27:34;;;;;;;9.60;6.90;;;;;;;27.47;54.20;101814.34;4975041;28;20121;-68
2022/07/13 07:30:00;;;;;;;12.05;7.65;;;;;;;27.47;54.44;101824.47;5006526;28;20042;-68
2022/07/13 07:32:26;;;;;;;10.80;7.35;;;;;;;26.97;57.30;101831.31;4994699;28;20053;-68
2022/07/13 07:34:56;;;;;;;10.75;6.47;;;;;;;27.23;55.93;101828.25;4988022;28;20065;-69
2022/07/13 07:37:25;;;;;;;9.77;6.68;;;;;;;27.02;56.72;101831.63;4987936;28;20069;-67
2022/07/13 07:39:54;;;;;;;15.15;7.70;;;;;;;27.80;55.82;101808.59;4987464;28;20042;-68
2022/07/13 07:42:23;;;;;;;14.50;7.13;;;;;;;27.91;52.33;101810.84;4987911;28;20042;-68
2022/07/13 07:44:49;;;;;;;15.95;7.68;;;;;;;27.93;52.14;101814.28;4988218;28;20057;-68
2022/07/13 07:47:22;;;;;;;14.52;7.50;;;;;;;28.66;50.91;101820.78;4987886;28;20048;-68
2022/07/13 07:49:49;;;;;;;8.95;6.93;;;;;;;28.99;49.33;101812.97;4987905;28;20034;-68
2022/07/13 07:52:14;;;;;;;11.73;7.32;;;;;;;29.24;51.21;101807.09;4985781;28;20125;-68
2022/07/13 07:54:40;;;;;;;9.43;6.53;;;;;;;29.23;49.40;101814.50;4996822;28;20475;-68
2022/07/13 07:57:08;;;;;;;15.43;7.25;;;;;;;28.78;50.88;101818.41;4991762;28;20035;-68
2022/07/13 07:59:34;;;;;;;12.88;7.70;;;;;;;28.39;49.30;101814.13;4983912;28;20053;-67
2022/07/13 08:02:03;;;;;;;15.10;7.18;;;;;;;28.47;53.14;101805.78;4996511;28;20042;-68
2022/07/13 08:04:29;;;;;;;10.27;7.50;;;;;;;28.28;51.96;101806.34;4985977;28;20035;-68
2022/07/13 08:06:55;;;;;;;15.90;7.50;;;;;;;27.86;53.71;101800.47;4969134;28;20361;-69
2022/07/13 08:09:21;;;;;;;13.88;7.70;;;;;;;27.63;54.36;101805.13;4986513;28;20038;-67
2022/07/13 08:11:46;;;;;;;11.30;6.38;;;;;;;27.65;54.96;101814.00;4987152;28;20049;-68
2022/07/13 08:14:12;;;;;;;9.93;7.15;;;;;;;28.26;52.90;101805.66;4985394;28;20042;-67
2022/07/13 08:16:38;;;;;;;11.23;6.47;;;;;;;29.50;49.53;101803.72;4985582;28;20701;-68
2022/07/13 08:19:06;;;;;;;19.15;7.43;;;;;;;29.68;52.11;101790.38;4968730;28;20034;-67
2022/07/13 08:21:32;;;;;;;17.70;8.65;;;;;;;28.58;51.24;101801.69;4986784;28;20089;-67
2022/07/13 08:23:58;;;;;;;14.40;7.55;;;;;;;28.18;52.51;101795.66;4985497;28;20116;-67
2022/07/13 08:26:27;;;;;;;12.05;6.68;;;;;;;27.88;55.09;101797.53;4984572;28;20046;-68
2022/07/13 08:28:57;;;;;;;11.93;7.03;;;;;;;27.29;55.03;101813.81;4986548;28;20381;-68
2022/07/13 08:31:25;;;;;;;14.10;7.25;;;;;;;27.15;56.69;101814.59;4987270;28;20073;-68
2022/07/13 08:39:25;;;;;;;13.18;6.82;;;;;;;27.43;57.44;101809.44;4987938;28;20042;-66
2022/07/13 08:41:55;;;;;;;13.20;7.45;;;;;;;28.24;54.80;101805.88;4985935;28;20042;-67
2022/07/13 08:44:21;;;;;;;12.13;5.97;;;;;;;28.58;53.96;101801.69;4986306;28;20427;-68
2022/07/13 08:46:46;;;;;;;9.20;5.32;;;;;;;28.50;54.98;101807.28;4986882;28;20069;-67
2022/07/13 08:49:12;;;;;;;6.80;5.38;;;;;;;27.87;55.62;101810.41;4985189;28;20049;-67
2022/07/13 08:51:40;;;;;;;12.10;5.45;;;;;;;28.63;56.21;101818.44;4996154;28;20049;-67
2022/07/13 08:54:05;;;;;;;9.10;4.72;;;;;;;28.48;53.44;101820.38;5005186;28;20054;-67
2022/07/13 08:56:32;;;;;;;8.65;5.70;;;;;;;28.03;55.72;101811.25;5004338;28;20064;-66
2022/07/13 08:59:01;;;;;;;17.90;6.28;;;;;;;27.88;56.15;101814.84;5006026;28;20073;-67
2022/07/13 09:01:26;;;;;;;26.02;5.82;;;;;;;28.20;56.28;101811.91;5006351;28;20413;-67
2022/07/13 09:03:57;;;;;;;8.38;4.50;;;;;;;28.79;54.99;101822.84;5005743;28;20053;-66
2022/07/13 09:06:44;;;;;;;5.30;4.57;;;;;;;29.11;52.58;101805.91;5005663;28;20461;-68
2022/07/13 09:09:31;;;;;;;9.77;5.30;;;;;;;29.12;52.99;101812.28;5006786;28;20041;-67
2022/07/13 09:12:23;;;;;;;9.88;5.30;;;;;;;28.61;54.76;101821.34;5006344;28;20041;-68
2022/07/13 09:15:06;;;;;;;7.78;4.35;;;;;;;28.68;55.36;101820.63;5003113;28;20053;-67
2022/07/13 09:17:36;;;;;;;6.43;4.72;;;;;;;28.76;54.58;101820.47;5006403;28;20434;-67
2022/07/13 09:20:14;;;;;;;9.38;4.55;;;;;;;28.45;52.29;101828.97;5005216;28;20044;-67
2022/07/13 09:22:57;;;;;;;7.25;4.90;;;;;;;28.31;53.77;101823.25;5005823;28;20050;-67
2022/07/13 09:25:54;;;;;;;9.35;4.72;;;;;;;28.32;52.68;101829.63;5005166;28;20042;-68
2022/07/13 09:28:19;;;;;;;5.80;4.90;;;;;;;28.54;53.90;101831.41;5003730;28;20053;-67
2022/07/13 09:30:45;;;;;;;6.82;5.03;;;;;;;28.53;52.46;101828.88;5005133;28;20109;-66
2022/07/13 09:33:11;;;;;;;9.63;5.45;;;;;;;28.39;53.38;101825.94;5005784;28;20042;-67
2022/07/13 09:35:48;;;;;;;7.47;4.57;;;;;;;28.57;51.55;101816.47;5004642;28;20569;-67
2022/07/13 09:38:36;;;;;;;8.65;5.28;;;;;;;28.21;54.63;101819.09;5005247;28;20810;-67
2022/07/13 09:41:24;;;;;;;9.50;5.05;;;;;;;28.61;52.99;101818.63;5004219;28;20045;-67
2022/07/13 09:46:50;;;;;;;10.35;4.32;;;;;;;28.95;53.07;101821.78;5004798;28;20046;-68
2022/07/13 09:49:34;;;;;;;7.43;4.35;;;;;;;29.72;51.60;101818.31;5003213;28;20052;-68
2022/07/13 09:52:10;;;;;;;6.65;4.78;;;;;;;29.32;52.22;101823.44;4990702;28;20034;-67
2022/07/13 09:54:41;;;;;;;7.53;4.72;;;;;;;28.99;50.74;101823.97;4991625;28;20049;-68
2022/07/13 09:57:09;;;;;;;7.75;4.93;;;;;;;29.35;48.95;101823.03;5004296;28;20037;-68
2022/07/13 09:59:42;;;;;;;9.38;4.60;;;;;;;29.35;50.11;101826.63;5004972;28;20049;-66
2022/07/13 10:02:08;;;;;;;7.72;4.07;;;;;;;29.04;50.04;101826.97;5004706;28;20061;-68
2022/07/13 10:04:35;;;;;;;7.18;4.68;;;;;;;29.41;50.29;101822.25;5004843;28;20749;-69
2022/07/13 10:07:04;;;;;;;6.05;4.18;;;;;;;29.38;49.23;101820.75;5003136;28;20131;-69
2022/07/13 10:09:32;;;;;;;6.55;4.05;;;;;;;29.25;48.78;101817.03;5003461;28;20046;-67
2022/07/13 10:12:06;;;;;;;8.73;3.95;;;;;;;29.31;45.83;101832.72;5002780;28;20034;-68
2022/07/13 10:14:32;;;;;;;5.80;3.83;;;;;;;29.29;48.07;101821.94;5002909;28;20164;-69
2022/07/13 10:16:58;;;;;;;10.65;4.10;;;;;;;29.49;47.09;101827.63;5004305;28;20073;-69
2022/07/13 10:19:26;;;;;;;7.30;4.30;;;;;;;29.32;46.14;101832.56;5003596;28;20046;-68
2022/07/13 10:22:09;;;;;;;7.63;4.03;;;;;;;29.95;48.30;101832.66;5004247;28;20042;-68
2022/07/13 10:24:36;;;;;;;5.53;3.58;;;;;;;30.20;48.52;101833.06;5003542;28;20048;-68
2022/07/13 10:27:28;;;;;;;4.53;3.85;;;;;;;29.41;47.51;101825.84;5005004;28;20038;-68
2022/07/13 10:30:08;;;;;;;6.10;3.90;;;;;;;29.66;48.65;101836.47;5003819;28;20038;-69
2022/07/13 10:32:36;;;;;;;4.50;3.35;;;;;;;29.43;45.33;101831.16;5008607;28;20040;-68
2022/07/13 10:35:10;;;;;;;4.88;3.53;;;;;;;29.47;46.49;101832.47;5007615;28;20042;-68
2022/07/13 10:37:56;;;;;;;7.38;4.00;;;;;;;29.53;47.04;101839.94;5009454;28;20045;-68
2022/07/13 10:40:23;;;;;;;4.80;3.72;;;;;;;29.71;44.99;101842.19;4993169;28;20058;-69
2022/07/13 10:42:55;;;;;;;6.93;3.20;;;;;;;30.06;42.45;101840.34;5009185;28;20053;-68
2022/07/13 10:45:43;;;;;;;4.30;2.90;;;;;;;29.89;41.50;101848.06;5007645;28;20461;-68
2022/07/13 10:48:34;;;;;;;7.00;3.75;;;;;;;29.93;45.71;101838.38;5007996;28;20049;-68
2022/07/13 10:51:01;;;;;;;8.80;3.97;;;;;;;30.35;45.48;101839.28;5008745;28;20045;-68
2022/07/13 10:53:39;;;;;;;6.43;3.70;;;;;;;29.53;45.54;101839.94;5018205;28;20052;-70
2022/07/13 10:56:17;;;;;;;3.65;2.83;;;;;;;29.84;43.85;101836.81;5010993;28;20058;-70
2022/07/13 10:58:47;;;;;;;4.80;2.70;;;;;;;30.21;43.81;101826.50;5011774;28;20182;-70
2022/07/13 11:01:36;;;;;;;4.18;2.83;;;;;;;30.01;43.91;101822.75;5009199;28;20115;-70
2022/07/13 11:04:06;;;;;;;5.82;3.17;;;;;;;30.06;43.01;101823.84;5012260;28;20030;-70
2022/07/13 11:06:32;;;;;;;4.25;3.00;;;;;;;29.94;45.11;101817.22;5011112;28;20054;-70
2022/07/13 11:09:11;;;;;;;6.68;3.28;;;;;;;30.09;44.75;101828.94;5010701;28;20399;-70
2022/07/13 11:11:48;;;;;;;4.43;3.45;;;;;;;29.79;44.50;101830.22;5011896;28;20045;-70
2022/07/13 11:14:35;;;;;;;7.53;3.83;;;;;;;30.25;46.00;101827.81;5015063;28;20038;-70
2022/07/13 11:17:11;;;;;;;4.80;3.25;;;;;;;30.15;44.75;101828.16;5013217;28;20050;-71
2022/07/13 11:19:52;;;;;;;8.43;3.65;;;;;;;30.00;44.71;101824.66;5032346;28;20026;-70
2022/07/13 11:22:20;;;;;;;4.18;3.40;;;;;;;30.09;46.19;101823.44;5019001;28;20033;-70
2022/07/13 11:25:14;;;;;;;4.28;3.22;;;;;;;30.04;45.61;101834.22;5017547;28;20081;-71
2022/07/13 11:27:54;;;;;;;5.82;3.60;;;;;;;29.81;46.96;101834.47;5021091;28;20085;-69
2022/07/13 11:30:28;;;;;;;6.43;3.90;;;;;;;29.36;47.65;101836.59;5020073;28;20038;-70
2022/07/13 11:32:57;;;;;;;5.38;3.28;;;;;;;29.65;48.01;101832.00;5023181;28;20022;-71